sensor_id;sensor_type;location;lat;lon;timestamp;P1;durP1;ratioP1;P2;durP2;ratioP2
48363;SDS011;34170;54.364;18.582;2022-08-06T00:02:23;3.55;;;3.17;;
48363;SDS011;34170;54.364;18.582;2022-08-06T00:04:57;5.18;;;3.53;;
48363;SDS011;34170;54.364;18.582;2022-08-06T00:07:27;5.72;;;4.28;;
48363;SDS011;34170;54.364;18.582;2022-08-06T00:10:10;5.22;;;3.88;;
48363;SDS011;34170;54.364;18.582;2022-08-06T00:12:39;6.30;;;4.50;;
48363;SDS011;34170;54.364;18.582;2022-08-06T00:15:07;4.63;;;3.13;;
48363;SDS011;34170;54.364;18.582;2022-08-06T00:17:40;3.42;;;2.40;;
48363;SDS011;34170;54.364;18.582;2022-08-06T00:20:10;4.97;;;3.00;;
48363;SDS011;34170;54.364;18.582;2022-08-06T00:22:57;7.25;;;3.33;;
48363;SDS011;34170;54.364;18.582;2022-08-06T00:25:27;5.82;;;2.83;;
48363;SDS011;34170;54.364;18.582;2022-08-06T00:28:10;4.60;;;3.03;;
48363;SDS011;34170;54.364;18.582;2022-08-06T00:30:39;4.43;;;2.80;;
48363;SDS011;34170;54.364;18.582;2022-08-06T00:33:10;4.90;;;3.05;;
48363;SDS011;34170;54.364;18.582;2022-08-06T00:35:41;4.90;;;2.80;;
48363;SDS011;34170;54.364;18.582;2022-08-06T00:38:11;3.95;;;2.10;;
48363;SDS011;34170;54.364;18.582;2022-08-06T00:40:40;6.05;;;2.40;;
48363;SDS011;34170;54.364;18.582;2022-08-06T00:43:25;5.13;;;2.33;;
48363;SDS011;34170;54.364;18.582;2022-08-06T00:46:06;4.47;;;2.47;;
48363;SDS011;34170;54.364;18.582;2022-08-06T00:48:43;3.67;;;2.38;;
48363;SDS011;34170;54.364;18.582;2022-08-06T00:51:23;3.40;;;1.98;;
48363;SDS011;34170;54.364;18.582;2022-08-06T00:54:09;8.02;;;5.22;;
48363;SDS011;34170;54.364;18.582;2022-08-06T00:56:37;5.88;;;3.13;;
48363;SDS011;34170;54.364;18.582;2022-08-06T00:59:07;3.47;;;2.28;;
48363;SDS011;34170;54.364;18.582;2022-08-06T01:01:36;3.88;;;2.17;;
48363;SDS011;34170;54.364;18.582;2022-08-06T01:04:16;4.05;;;2.20;;
48363;SDS011;34170;54.364;18.582;2022-08-06T01:06:43;4.40;;;2.10;;
48363;SDS011;34170;54.364;18.582;2022-08-06T01:09:24;6.15;;;2.28;;
48363;SDS011;34170;54.364;18.582;2022-08-06T01:11:52;4.03;;;2.40;;
48363;SDS011;34170;54.364;18.582;2022-08-06T01:14:25;3.70;;;1.85;;
48363;SDS011;34170;54.364;18.582;2022-08-06T01:17:10;3.90;;;1.98;;
48363;SDS011;34170;54.364;18.582;2022-08-06T01:19:57;4.43;;;2.17;;
48363;SDS011;34170;54.364;18.582;2022-08-06T01:25:28;5.07;;;1.63;;
48363;SDS011;34170;54.364;18.582;2022-08-06T01:31:22;2.03;;;1.30;;
48363;SDS011;34170;54.364;18.582;2022-08-06T01:34:09;5.13;;;1.25;;
48363;SDS011;34170;54.364;18.582;2022-08-06T01:36:42;4.78;;;1.00;;
48363;SDS011;34170;54.364;18.582;2022-08-06T01:39:16;4.32;;;1.40;;
48363;SDS011;34170;54.364;18.582;2022-08-06T01:42:05;5.60;;;1.33;;
48363;SDS011;34170;54.364;18.582;2022-08-06T01:44:36;3.47;;;0.90;;
48363;SDS011;34170;54.364;18.582;2022-08-06T01:47:14;6.47;;;1.00;;
48363;SDS011;34170;54.364;18.582;2022-08-06T01:49:50;2.88;;;0.80;;
48363;SDS011;34170;54.364;18.582;2022-08-06T01:52:34;4.90;;;1.40;;
48363;SDS011;34170;54.364;18.582;2022-08-06T01:55:12;1.63;;;0.68;;
48363;SDS011;34170;54.364;18.582;2022-08-06T01:57:46;3.30;;;0.70;;
48363;SDS011;34170;54.364;18.582;2022-08-06T02:00:41;3.67;;;0.73;;
48363;SDS011;34170;54.364;18.582;2022-08-06T02:03:24;2.08;;;0.57;;
48363;SDS011;34170;54.364;18.582;2022-08-06T02:06:20;1.65;;;0.82;;
48363;SDS011;34170;54.364;18.582;2022-08-06T02:08:57;3.85;;;2.38;;
48363;SDS011;34170;54.364;18.582;2022-08-06T02:14:30;3.78;;;0.68;;
48363;SDS011;34170;54.364;18.582;2022-08-06T02:17:01;2.72;;;0.75;;
48363;SDS011;34170;54.364;18.582;2022-08-06T02:19:44;2.25;;;0.60;;
48363;SDS011;34170;54.364;18.582;2022-08-06T02:22:37;3.90;;;0.88;;
48363;SDS011;34170;54.364;18.582;2022-08-06T02:25:09;3.92;;;0.68;;
48363;SDS011;34170;54.364;18.582;2022-08-06T02:27:54;2.60;;;0.60;;
48363;SDS011;34170;54.364;18.582;2022-08-06T02:30:27;3.92;;;0.60;;
48363;SDS011;34170;54.364;18.582;2022-08-06T02:33:03;4.95;;;0.70;;
48363;SDS011;34170;54.364;18.582;2022-08-06T02:35:38;2.85;;;0.52;;
48363;SDS011;34170;54.364;18.582;2022-08-06T02:38:12;3.20;;;0.85;;
48363;SDS011;34170;54.364;18.582;2022-08-06T02:40:59;1.10;;;0.30;;
48363;SDS011;34170;54.364;18.582;2022-08-06T02:43:37;3.03;;;0.60;;
48363;SDS011;34170;54.364;18.582;2022-08-06T02:46:11;2.97;;;0.63;;
48363;SDS011;34170;54.364;18.582;2022-08-06T02:49:02;3.25;;;0.75;;
48363;SDS011;34170;54.364;18.582;2022-08-06T02:51:39;2.63;;;0.70;;
48363;SDS011;34170;54.364;18.582;2022-08-06T02:54:32;1.50;;;0.50;;
48363;SDS011;34170;54.364;18.582;2022-08-06T02:57:20;4.10;;;0.80;;
48363;SDS011;34170;54.364;18.582;2022-08-06T02:59:53;2.67;;;0.50;;
48363;SDS011;34170;54.364;18.582;2022-08-06T03:02:25;3.72;;;0.50;;
48363;SDS011;34170;54.364;18.582;2022-08-06T03:04:57;1.85;;;0.55;;
48363;SDS011;34170;54.364;18.582;2022-08-06T03:07:28;2.97;;;0.68;;
48363;SDS011;34170;54.364;18.582;2022-08-06T03:09:59;3.70;;;0.63;;
48363;SDS011;34170;54.364;18.582;2022-08-06T03:12:28;2.65;;;0.50;;
48363;SDS011;34170;54.364;18.582;2022-08-06T03:14:57;4.93;;;0.73;;
48363;SDS011;34170;54.364;18.582;2022-08-06T03:17:36;1.98;;;0.50;;
48363;SDS011;34170;54.364;18.582;2022-08-06T03:20:06;2.37;;;0.37;;
48363;SDS011;34170;54.364;18.582;2022-08-06T03:22:44;6.00;;;0.75;;
48363;SDS011;34170;54.364;18.582;2022-08-06T03:25:15;1.92;;;0.38;;
48363;SDS011;34170;54.364;18.582;2022-08-06T03:27:47;3.58;;;0.77;;
48363;SDS011;34170;54.364;18.582;2022-08-06T03:30:16;1.25;;;0.30;;
48363;SDS011;34170;54.364;18.582;2022-08-06T03:32:59;1.88;;;0.40;;
48363;SDS011;34170;54.364;18.582;2022-08-06T03:35:50;1.45;;;0.43;;
48363;SDS011;34170;54.364;18.582;2022-08-06T03:38:21;1.95;;;0.50;;
48363;SDS011;34170;54.364;18.582;2022-08-06T03:40:55;1.70;;;0.40;;
48363;SDS011;34170;54.364;18.582;2022-08-06T03:43:24;2.45;;;0.35;;
48363;SDS011;34170;54.364;18.582;2022-08-06T03:48:27;4.10;;;0.40;;
48363;SDS011;34170;54.364;18.582;2022-08-06T03:51:05;4.25;;;0.60;;
48363;SDS011;34170;54.364;18.582;2022-08-06T03:53:39;1.98;;;0.40;;
48363;SDS011;34170;54.364;18.582;2022-08-06T03:56:16;2.80;;;0.73;;
48363;SDS011;34170;54.364;18.582;2022-08-06T03:58:58;1.80;;;0.30;;
48363;SDS011;34170;54.364;18.582;2022-08-06T04:01:32;2.38;;;0.40;;
48363;SDS011;34170;54.364;18.582;2022-08-06T04:04:16;1.30;;;0.35;;
48363;SDS011;34170;54.364;18.582;2022-08-06T04:06:56;1.27;;;0.30;;
48363;SDS011;34170;54.364;18.582;2022-08-06T04:09:29;1.95;;;0.30;;
48363;SDS011;34170;54.364;18.582;2022-08-06T04:12:18;1.65;;;0.22;;
48363;SDS011;34170;54.364;18.582;2022-08-06T04:15:08;1.83;;;0.45;;
48363;SDS011;34170;54.364;18.582;2022-08-06T04:17:36;1.33;;;0.30;;
48363;SDS011;34170;54.364;18.582;2022-08-06T04:20:09;2.75;;;0.57;;
48363;SDS011;34170;54.364;18.582;2022-08-06T04:22:38;0.90;;;0.40;;
48363;SDS011;34170;54.364;18.582;2022-08-06T04:25:26;2.20;;;0.20;;
48363;SDS011;34170;54.364;18.582;2022-08-06T04:28:03;1.80;;;0.28;;
48363;SDS011;34170;54.364;18.582;2022-08-06T04:30:35;1.77;;;0.38;;
48363;SDS011;34170;54.364;18.582;2022-08-06T04:33:04;3.25;;;0.40;;
48363;SDS011;34170;54.364;18.582;2022-08-06T04:35:38;1.20;;;0.50;;
48363;SDS011;34170;54.364;18.582;2022-08-06T04:38:27;0.77;;;0.20;;
48363;SDS011;34170;54.364;18.582;2022-08-06T04:40:57;2.67;;;0.50;;
48363;SDS011;34170;54.364;18.582;2022-08-06T04:43:29;1.35;;;0.32;;
48363;SDS011;34170;54.364;18.582;2022-08-06T04:46:17;2.60;;;0.40;;
48363;SDS011;34170;54.364;18.582;2022-08-06T04:48:47;2.90;;;0.47;;
48363;SDS011;34170;54.364;18.582;2022-08-06T04:51:21;3.33;;;0.38;;
48363;SDS011;34170;54.364;18.582;2022-08-06T04:54:09;2.92;;;0.40;;
48363;SDS011;34170;54.364;18.582;2022-08-06T04:56:39;1.13;;;0.20;;
48363;SDS011;34170;54.364;18.582;2022-08-06T04:59:15;2.78;;;0.30;;
48363;SDS011;34170;54.364;18.582;2022-08-06T05:01:43;1.83;;;0.32;;
48363;SDS011;34170;54.364;18.582;2022-08-06T05:04:28;1.85;;;0.20;;
48363;SDS011;34170;54.364;18.582;2022-08-06T05:09:42;2.75;;;0.60;;
48363;SDS011;34170;54.364;18.582;2022-08-06T05:12:32;2.40;;;0.43;;
48363;SDS011;34170;54.364;18.582;2022-08-06T05:17:51;2.47;;;0.40;;
48363;SDS011;34170;54.364;18.582;2022-08-06T05:20:26;0.63;;;0.20;;
48363;SDS011;34170;54.364;18.582;2022-08-06T05:23:00;1.45;;;0.25;;
48363;SDS011;34170;54.364;18.582;2022-08-06T05:25:37;1.05;;;0.30;;
48363;SDS011;34170;54.364;18.582;2022-08-06T05:28:19;1.27;;;0.20;;
48363;SDS011;34170;54.364;18.582;2022-08-06T05:30:53;2.42;;;0.28;;
48363;SDS011;34170;54.364;18.582;2022-08-06T05:36:00;3.33;;;0.30;;
48363;SDS011;34170;54.364;18.582;2022-08-06T05:38:33;1.08;;;0.20;;
48363;SDS011;34170;54.364;18.582;2022-08-06T05:41:03;1.38;;;0.28;;
48363;SDS011;34170;54.364;18.582;2022-08-06T05:43:36;2.33;;;0.20;;
48363;SDS011;34170;54.364;18.582;2022-08-06T05:46:24;2.63;;;0.35;;
48363;SDS011;34170;54.364;18.582;2022-08-06T05:49:15;1.13;;;0.22;;
48363;SDS011;34170;54.364;18.582;2022-08-06T05:52:13;1.23;;;0.35;;
48363;SDS011;34170;54.364;18.582;2022-08-06T05:57:31;1.52;;;0.35;;
48363;SDS011;34170;54.364;18.582;2022-08-06T06:00:09;1.38;;;0.30;;
48363;SDS011;34170;54.364;18.582;2022-08-06T06:05:29;1.98;;;0.40;;
48363;SDS011;34170;54.364;18.582;2022-08-06T06:08:17;2.28;;;0.20;;
48363;SDS011;34170;54.364;18.582;2022-08-06T06:11:07;2.30;;;0.30;;
48363;SDS011;34170;54.364;18.582;2022-08-06T06:13:39;2.13;;;0.40;;
48363;SDS011;34170;54.364;18.582;2022-08-06T06:19:40;2.17;;;0.38;;
48363;SDS011;34170;54.364;18.582;2022-08-06T06:22:22;1.35;;;0.25;;
48363;SDS011;34170;54.364;18.582;2022-08-06T06:24:59;0.63;;;0.20;;
48363;SDS011;34170;54.364;18.582;2022-08-06T06:33:39;1.65;;;0.30;;
48363;SDS011;34170;54.364;18.582;2022-08-06T06:36:40;2.15;;;0.40;;
48363;SDS011;34170;54.364;18.582;2022-08-06T06:39:38;0.60;;;0.30;;
48363;SDS011;34170;54.364;18.582;2022-08-06T06:42:19;2.45;;;0.35;;
48363;SDS011;34170;54.364;18.582;2022-08-06T06:45:04;0.68;;;0.20;;
48363;SDS011;34170;54.364;18.582;2022-08-06T06:48:09;1.05;;;0.30;;
48363;SDS011;34170;54.364;18.582;2022-08-06T06:50:51;2.13;;;0.40;;
48363;SDS011;34170;54.364;18.582;2022-08-06T06:53:27;4.47;;;0.30;;
48363;SDS011;34170;54.364;18.582;2022-08-06T06:56:20;3.15;;;0.63;;
48363;SDS011;34170;54.364;18.582;2022-08-06T06:58:59;1.75;;;0.52;;
48363;SDS011;34170;54.364;18.582;2022-08-06T07:01:43;2.50;;;0.20;;
48363;SDS011;34170;54.364;18.582;2022-08-06T07:04:21;3.08;;;0.20;;
48363;SDS011;34170;54.364;18.582;2022-08-06T07:06:56;1.15;;;0.13;;
48363;SDS011;34170;54.364;18.582;2022-08-06T07:09:40;1.20;;;0.22;;
48363;SDS011;34170;54.364;18.582;2022-08-06T07:12:27;3.33;;;0.20;;
48363;SDS011;34170;54.364;18.582;2022-08-06T07:15:01;2.42;;;0.45;;
48363;SDS011;34170;54.364;18.582;2022-08-06T07:17:41;1.85;;;0.32;;
48363;SDS011;34170;54.364;18.582;2022-08-06T07:20:19;0.80;;;0.28;;
48363;SDS011;34170;54.364;18.582;2022-08-06T07:22:55;2.53;;;0.40;;
48363;SDS011;34170;54.364;18.582;2022-08-06T07:25:47;1.85;;;0.60;;
48363;SDS011;34170;54.364;18.582;2022-08-06T07:28:22;1.67;;;0.77;;
48363;SDS011;34170;54.364;18.582;2022-08-06T07:30:55;2.08;;;0.20;;
48363;SDS011;34170;54.364;18.582;2022-08-06T07:33:35;0.43;;;0.10;;
48363;SDS011;34170;54.364;18.582;2022-08-06T07:36:28;3.70;;;0.30;;
48363;SDS011;34170;54.364;18.582;2022-08-06T07:39:07;1.33;;;0.20;;
48363;SDS011;34170;54.364;18.582;2022-08-06T07:41:41;1.70;;;0.30;;
48363;SDS011;34170;54.364;18.582;2022-08-06T07:44:30;3.10;;;0.45;;
48363;SDS011;34170;54.364;18.582;2022-08-06T07:47:23;0.45;;;0.20;;
48363;SDS011;34170;54.364;18.582;2022-08-06T07:50:17;2.13;;;0.20;;
48363;SDS011;34170;54.364;18.582;2022-08-06T07:52:50;0.30;;;0.10;;
48363;SDS011;34170;54.364;18.582;2022-08-06T07:55:21;1.05;;;0.30;;
48363;SDS011;34170;54.364;18.582;2022-08-06T07:58:06;2.72;;;0.10;;
48363;SDS011;34170;54.364;18.582;2022-08-06T08:00:35;3.50;;;0.30;;
48363;SDS011;34170;54.364;18.582;2022-08-06T08:03:05;1.67;;;0.40;;
48363;SDS011;34170;54.364;18.582;2022-08-06T08:06:12;1.58;;;0.40;;
48363;SDS011;34170;54.364;18.582;2022-08-06T08:08:49;4.15;;;0.30;;
48363;SDS011;34170;54.364;18.582;2022-08-06T08:11:37;5.53;;;0.38;;
48363;SDS011;34170;54.364;18.582;2022-08-06T08:14:27;3.80;;;0.47;;
48363;SDS011;34170;54.364;18.582;2022-08-06T08:16:56;1.83;;;0.50;;
48363;SDS011;34170;54.364;18.582;2022-08-06T08:19:32;1.50;;;0.28;;
48363;SDS011;34170;54.364;18.582;2022-08-06T08:22:03;1.98;;;0.38;;
48363;SDS011;34170;54.364;18.582;2022-08-06T08:24:36;1.25;;;0.30;;
48363;SDS011;34170;54.364;18.582;2022-08-06T08:27:06;1.42;;;0.30;;
48363;SDS011;34170;54.364;18.582;2022-08-06T08:29:48;0.73;;;0.30;;
48363;SDS011;34170;54.364;18.582;2022-08-06T08:32:21;3.22;;;0.50;;
48363;SDS011;34170;54.364;18.582;2022-08-06T08:34:48;3.28;;;0.40;;
48363;SDS011;34170;54.364;18.582;2022-08-06T08:37:20;1.48;;;0.20;;
48363;SDS011;34170;54.364;18.582;2022-08-06T08:39:47;1.25;;;0.30;;
48363;SDS011;34170;54.364;18.582;2022-08-06T08:42:19;4.20;;;0.35;;
48363;SDS011;34170;54.364;18.582;2022-08-06T08:45:04;1.35;;;0.38;;
48363;SDS011;34170;54.364;18.582;2022-08-06T08:47:42;1.25;;;0.30;;
48363;SDS011;34170;54.364;18.582;2022-08-06T08:50:23;2.85;;;0.30;;
48363;SDS011;34170;54.364;18.582;2022-08-06T08:53:07;2.30;;;0.10;;
48363;SDS011;34170;54.364;18.582;2022-08-06T08:55:37;1.83;;;0.40;;
48363;SDS011;34170;54.364;18.582;2022-08-06T08:58:26;1.35;;;0.20;;
48363;SDS011;34170;54.364;18.582;2022-08-06T09:01:09;3.33;;;0.40;;
48363;SDS011;34170;54.364;18.582;2022-08-06T09:03:57;3.90;;;0.38;;
48363;SDS011;34170;54.364;18.582;2022-08-06T09:06:28;2.95;;;0.20;;
48363;SDS011;34170;54.364;18.582;2022-08-06T09:09:00;3.08;;;0.32;;
48363;SDS011;34170;54.364;18.582;2022-08-06T09:11:32;2.92;;;0.35;;
48363;SDS011;34170;54.364;18.582;2022-08-06T09:14:20;2.58;;;0.43;;
48363;SDS011;34170;54.364;18.582;2022-08-06T09:16:59;2.17;;;0.20;;
48363;SDS011;34170;54.364;18.582;2022-08-06T09:19:30;1.95;;;0.20;;
48363;SDS011;34170;54.364;18.582;2022-08-06T09:22:04;1.10;;;0.30;;
48363;SDS011;34170;54.364;18.582;2022-08-06T09:24:36;1.40;;;0.40;;
48363;SDS011;34170;54.364;18.582;2022-08-06T09:27:09;0.82;;;0.00;;
48363;SDS011;34170;54.364;18.582;2022-08-06T09:29:59;1.65;;;0.20;;
48363;SDS011;34170;54.364;18.582;2022-08-06T09:32:50;1.00;;;0.10;;
48363;SDS011;34170;54.364;18.582;2022-08-06T09:35:24;1.73;;;0.08;;
48363;SDS011;34170;54.364;18.582;2022-08-06T09:38:12;1.15;;;0.10;;
48363;SDS011;34170;54.364;18.582;2022-08-06T09:43:45;1.48;;;0.20;;
48363;SDS011;34170;54.364;18.582;2022-08-06T09:46:43;1.80;;;0.15;;
48363;SDS011;34170;54.364;18.582;2022-08-06T09:49:15;0.98;;;0.10;;
48363;SDS011;34170;54.364;18.582;2022-08-06T09:52:37;8.63;;;0.40;;
48363;SDS011;34170;54.364;18.582;2022-08-06T09:54:57;1.08;;;0.10;;
48363;SDS011;34170;54.364;18.582;2022-08-06T09:57:41;2.47;;;0.10;;
48363;SDS011;34170;54.364;18.582;2022-08-06T10:00:24;0.98;;;0.20;;
48363;SDS011;34170;54.364;18.582;2022-08-06T10:02:58;1.10;;;0.10;;
48363;SDS011;34170;54.364;18.582;2022-08-06T10:06:01;1.25;;;0.30;;
48363;SDS011;34170;54.364;18.582;2022-08-06T10:08:40;3.97;;;0.10;;
48363;SDS011;34170;54.364;18.582;2022-08-06T10:11:31;0.40;;;0.10;;
48363;SDS011;34170;54.364;18.582;2022-08-06T10:14:25;1.70;;;0.30;;
48363;SDS011;34170;54.364;18.582;2022-08-06T10:17:08;1.00;;;0.10;;
48363;SDS011;34170;54.364;18.582;2022-08-06T10:19:36;2.53;;;0.10;;
48363;SDS011;34170;54.364;18.582;2022-08-06T10:22:18;1.17;;;0.10;;
48363;SDS011;34170;54.364;18.582;2022-08-06T10:24:51;1.02;;;0.17;;
48363;SDS011;34170;54.364;18.582;2022-08-06T10:27:25;0.50;;;0.10;;
48363;SDS011;34170;54.364;18.582;2022-08-06T10:30:04;1.60;;;0.20;;
48363;SDS011;34170;54.364;18.582;2022-08-06T10:35:04;1.27;;;0.20;;
48363;SDS011;34170;54.364;18.582;2022-08-06T10:37:41;4.82;;;0.80;;
48363;SDS011;34170;54.364;18.582;2022-08-06T10:40:15;2.30;;;0.22;;
48363;SDS011;34170;54.364;18.582;2022-08-06T10:42:58;1.65;;;0.50;;
48363;SDS011;34170;54.364;18.582;2022-08-06T10:45:29;3.00;;;0.38;;
48363;SDS011;34170;54.364;18.582;2022-08-06T10:48:16;4.78;;;0.82;;
48363;SDS011;34170;54.364;18.582;2022-08-06T10:51:04;2.03;;;0.40;;
48363;SDS011;34170;54.364;18.582;2022-08-06T10:53:35;4.50;;;0.77;;
48363;SDS011;34170;54.364;18.582;2022-08-06T10:56:25;3.45;;;0.60;;
48363;SDS011;34170;54.364;18.582;2022-08-06T10:58:57;1.55;;;0.20;;
48363;SDS011;34170;54.364;18.582;2022-08-06T11:13:19;4.22;;;0.63;;
48363;SDS011;34170;54.364;18.582;2022-08-06T11:16:23;3.72;;;0.40;;
48363;SDS011;34170;54.364;18.582;2022-08-06T11:19:12;4.47;;;0.68;;
48363;SDS011;34170;54.364;18.582;2022-08-06T11:24:29;1.05;;;0.28;;
48363;SDS011;34170;54.364;18.582;2022-08-06T11:27:03;1.27;;;0.13;;
48363;SDS011;34170;54.364;18.582;2022-08-06T11:41:26;1.15;;;0.20;;
48363;SDS011;34170;54.364;18.582;2022-08-06T11:44:15;1.08;;;0.17;;
48363;SDS011;34170;54.364;18.582;2022-08-06T11:47:13;0.98;;;0.10;;
48363;SDS011;34170;54.364;18.582;2022-08-06T11:49:41;0.68;;;0.10;;
48363;SDS011;34170;54.364;18.582;2022-08-06T11:55:06;0.60;;;0.05;;
48363;SDS011;34170;54.364;18.582;2022-08-06T11:57:48;3.25;;;0.25;;
48363;SDS011;34170;54.364;18.582;2022-08-06T12:00:18;0.22;;;0.03;;
48363;SDS011;34170;54.364;18.582;2022-08-06T12:02:49;2.13;;;0.15;;
48363;SDS011;34170;54.364;18.582;2022-08-06T12:08:10;1.52;;;0.40;;
48363;SDS011;34170;54.364;18.582;2022-08-06T12:13:54;6.53;;;0.40;;
48363;SDS011;34170;54.364;18.582;2022-08-06T12:16:42;1.35;;;0.30;;
48363;SDS011;34170;54.364;18.582;2022-08-06T12:19:20;0.65;;;0.10;;
48363;SDS011;34170;54.364;18.582;2022-08-06T12:21:51;2.58;;;0.10;;
48363;SDS011;34170;54.364;18.582;2022-08-06T12:24:24;1.08;;;0.20;;
48363;SDS011;34170;54.364;18.582;2022-08-06T12:27:13;1.63;;;0.10;;
48363;SDS011;34170;54.364;18.582;2022-08-06T12:29:42;0.35;;;0.05;;
48363;SDS011;34170;54.364;18.582;2022-08-06T12:32:18;1.58;;;0.20;;
48363;SDS011;34170;54.364;18.582;2022-08-06T12:34:53;1.85;;;0.15;;
48363;SDS011;34170;54.364;18.582;2022-08-06T12:37:35;0.55;;;0.05;;
48363;SDS011;34170;54.364;18.582;2022-08-06T12:40:15;2.65;;;0.10;;
48363;SDS011;34170;54.364;18.582;2022-08-06T12:45:41;1.17;;;0.20;;
48363;SDS011;34170;54.364;18.582;2022-08-06T12:48:29;3.85;;;0.60;;
48363;SDS011;34170;54.364;18.582;2022-08-06T12:51:05;0.88;;;0.20;;
48363;SDS011;34170;54.364;18.582;2022-08-06T12:53:54;0.98;;;0.20;;
48363;SDS011;34170;54.364;18.582;2022-08-06T12:56:26;1.23;;;0.10;;
48363;SDS011;34170;54.364;18.582;2022-08-06T12:59:02;1.88;;;0.80;;
48363;SDS011;34170;54.364;18.582;2022-08-06T13:01:32;3.25;;;1.50;;
48363;SDS011;34170;54.364;18.582;2022-08-06T13:04:21;1.40;;;0.20;;
48363;SDS011;34170;54.364;18.582;2022-08-06T13:06:56;2.65;;;0.20;;
48363;SDS011;34170;54.364;18.582;2022-08-06T13:09:28;0.88;;;0.52;;
48363;SDS011;34170;54.364;18.582;2022-08-06T13:12:14;3.15;;;0.32;;
48363;SDS011;34170;54.364;18.582;2022-08-06T13:15:11;1.25;;;0.10;;
48363;SDS011;34170;54.364;18.582;2022-08-06T13:18:02;5.18;;;0.28;;
48363;SDS011;34170;54.364;18.582;2022-08-06T13:20:54;2.05;;;0.10;;
48363;SDS011;34170;54.364;18.582;2022-08-06T13:23:35;1.67;;;0.28;;
48363;SDS011;34170;54.364;18.582;2022-08-06T13:26:17;1.38;;;0.20;;
48363;SDS011;34170;54.364;18.582;2022-08-06T13:34:54;2.50;;;0.20;;
48363;SDS011;34170;54.364;18.582;2022-08-06T13:43:02;1.95;;;0.20;;
48363;SDS011;34170;54.364;18.582;2022-08-06T13:45:30;3.40;;;0.28;;
48363;SDS011;34170;54.364;18.582;2022-08-06T13:48:17;3.22;;;0.40;;
48363;SDS011;34170;54.364;18.582;2022-08-06T13:50:49;2.92;;;0.10;;
48363;SDS011;34170;54.364;18.582;2022-08-06T13:53:16;1.85;;;0.17;;
48363;SDS011;34170;54.364;18.582;2022-08-06T13:55:46;0.93;;;0.20;;
48363;SDS011;34170;54.364;18.582;2022-08-06T13:58:29;1.70;;;0.45;;
48363;SDS011;34170;54.364;18.582;2022-08-06T14:00:57;2.38;;;0.30;;
48363;SDS011;34170;54.364;18.582;2022-08-06T14:03:25;1.45;;;0.45;;
48363;SDS011;34170;54.364;18.582;2022-08-06T14:06:04;2.28;;;0.10;;
48363;SDS011;34170;54.364;18.582;2022-08-06T14:08:32;1.67;;;0.30;;
48363;SDS011;34170;54.364;18.582;2022-08-06T14:11:02;3.42;;;0.30;;
48363;SDS011;34170;54.364;18.582;2022-08-06T14:13:30;1.23;;;0.17;;
48363;SDS011;34170;54.364;18.582;2022-08-06T14:15:58;0.95;;;0.20;;
48363;SDS011;34170;54.364;18.582;2022-08-06T14:18:29;4.70;;;0.30;;
48363;SDS011;34170;54.364;18.582;2022-08-06T14:21:03;2.55;;;0.20;;
48363;SDS011;34170;54.364;18.582;2022-08-06T14:23:32;3.40;;;1.05;;
48363;SDS011;34170;54.364;18.582;2022-08-06T14:26:06;1.63;;;0.40;;
48363;SDS011;34170;54.364;18.582;2022-08-06T14:28:38;1.77;;;0.10;;
48363;SDS011;34170;54.364;18.582;2022-08-06T14:31:14;2.03;;;0.30;;
48363;SDS011;34170;54.364;18.582;2022-08-06T14:33:41;2.25;;;0.20;;
48363;SDS011;34170;54.364;18.582;2022-08-06T14:36:25;3.10;;;0.63;;
48363;SDS011;34170;54.364;18.582;2022-08-06T14:38:53;5.45;;;1.30;;
48363;SDS011;34170;54.364;18.582;2022-08-06T14:41:22;6.13;;;1.80;;
48363;SDS011;34170;54.364;18.582;2022-08-06T14:44:18;3.15;;;1.15;;
48363;SDS011;34170;54.364;18.582;2022-08-06T14:47:06;3.00;;;0.25;;
48363;SDS011;34170;54.364;18.582;2022-08-06T14:49:45;5.43;;;1.58;;
48363;SDS011;34170;54.364;18.582;2022-08-06T14:52:17;15.85;;;10.15;;
48363;SDS011;34170;54.364;18.582;2022-08-06T14:54:53;25.60;;;14.73;;
48363;SDS011;34170;54.364;18.582;2022-08-06T14:57:33;19.45;;;8.68;;
48363;SDS011;34170;54.364;18.582;2022-08-06T15:00:22;6.30;;;3.63;;
48363;SDS011;34170;54.364;18.582;2022-08-06T15:03:00;3.42;;;1.90;;
48363;SDS011;34170;54.364;18.582;2022-08-06T15:05:28;1.40;;;0.52;;
48363;SDS011;34170;54.364;18.582;2022-08-06T15:08:15;3.20;;;1.02;;
48363;SDS011;34170;54.364;18.582;2022-08-06T15:10:43;4.07;;;0.28;;
48363;SDS011;34170;54.364;18.582;2022-08-06T15:13:10;3.67;;;0.88;;
48363;SDS011;34170;54.364;18.582;2022-08-06T15:15:39;3.97;;;0.30;;
48363;SDS011;34170;54.364;18.582;2022-08-06T15:18:14;1.40;;;0.40;;
48363;SDS011;34170;54.364;18.582;2022-08-06T15:21:02;1.38;;;0.30;;
48363;SDS011;34170;54.364;18.582;2022-08-06T15:23:39;1.40;;;0.13;;
48363;SDS011;34170;54.364;18.582;2022-08-06T15:26:21;1.45;;;0.30;;
48363;SDS011;34170;54.364;18.582;2022-08-06T15:29:10;0.65;;;0.20;;
48363;SDS011;34170;54.364;18.582;2022-08-06T15:31:42;3.08;;;0.20;;
48363;SDS011;34170;54.364;18.582;2022-08-06T15:34:11;4.65;;;0.20;;
48363;SDS011;34170;54.364;18.582;2022-08-06T15:36:46;1.92;;;0.30;;
48363;SDS011;34170;54.364;18.582;2022-08-06T15:39:33;0.68;;;0.15;;
48363;SDS011;34170;54.364;18.582;2022-08-06T15:42:21;2.97;;;0.30;;
48363;SDS011;34170;54.364;18.582;2022-08-06T15:44:51;1.23;;;0.40;;
48363;SDS011;34170;54.364;18.582;2022-08-06T15:47:20;0.85;;;0.20;;
48363;SDS011;34170;54.364;18.582;2022-08-06T15:49:58;1.00;;;0.35;;
48363;SDS011;34170;54.364;18.582;2022-08-06T15:52:32;2.78;;;0.60;;
48363;SDS011;34170;54.364;18.582;2022-08-06T15:55:03;2.35;;;0.40;;
48363;SDS011;34170;54.364;18.582;2022-08-06T15:57:46;3.03;;;0.40;;
48363;SDS011;34170;54.364;18.582;2022-08-06T16:00:33;2.13;;;0.20;;
48363;SDS011;34170;54.364;18.582;2022-08-06T16:03:08;2.20;;;0.35;;
48363;SDS011;34170;54.364;18.582;2022-08-06T16:05:38;2.15;;;0.30;;
48363;SDS011;34170;54.364;18.582;2022-08-06T16:08:28;1.05;;;0.30;;
48363;SDS011;34170;54.364;18.582;2022-08-06T16:11:01;1.00;;;0.30;;
48363;SDS011;34170;54.364;18.582;2022-08-06T16:13:35;3.13;;;0.75;;
48363;SDS011;34170;54.364;18.582;2022-08-06T16:16:05;1.88;;;0.20;;
48363;SDS011;34170;54.364;18.582;2022-08-06T16:18:34;1.42;;;0.20;;
48363;SDS011;34170;54.364;18.582;2022-08-06T16:21:14;2.92;;;0.20;;
48363;SDS011;34170;54.364;18.582;2022-08-06T16:23:42;1.75;;;0.20;;
48363;SDS011;34170;54.364;18.582;2022-08-06T16:26:24;2.25;;;0.40;;
48363;SDS011;34170;54.364;18.582;2022-08-06T16:29:09;1.73;;;0.40;;
48363;SDS011;34170;54.364;18.582;2022-08-06T16:31:38;1.90;;;0.20;;
48363;SDS011;34170;54.364;18.582;2022-08-06T16:34:15;3.25;;;0.30;;
48363;SDS011;34170;54.364;18.582;2022-08-06T16:36:59;0.95;;;0.20;;
48363;SDS011;34170;54.364;18.582;2022-08-06T16:39:47;1.95;;;0.20;;
48363;SDS011;34170;54.364;18.582;2022-08-06T16:42:35;0.88;;;0.28;;
48363;SDS011;34170;54.364;18.582;2022-08-06T16:45:04;1.15;;;0.20;;
48363;SDS011;34170;54.364;18.582;2022-08-06T16:47:43;0.65;;;0.20;;
48363;SDS011;34170;54.364;18.582;2022-08-06T16:50:30;1.92;;;0.35;;
48363;SDS011;34170;54.364;18.582;2022-08-06T16:53:18;3.03;;;0.75;;
48363;SDS011;34170;54.364;18.582;2022-08-06T16:56:05;1.52;;;0.20;;
48363;SDS011;34170;54.364;18.582;2022-08-06T16:58:33;1.85;;;0.50;;
48363;SDS011;34170;54.364;18.582;2022-08-06T17:01:10;3.35;;;0.35;;
48363;SDS011;34170;54.364;18.582;2022-08-06T17:03:57;0.82;;;0.17;;
48363;SDS011;34170;54.364;18.582;2022-08-06T17:06:29;3.35;;;0.30;;
48363;SDS011;34170;54.364;18.582;2022-08-06T17:09:02;2.63;;;0.40;;